首页
METAR-TAF:

METAR-TAF

机场 :

Burley, 爱达荷州, 美国

纬度: 42-32-33N, 经度: 113-46-17W, 海拔: 1265米

当前天气观测

该预报发布于1小时和6分钟前的14:53 UTC
风速14节,风向
温度 3°C
湿度 44%
气压 1021 hPa
能見度: 16.1公里
天空无云

METAR: KBYI 191453Z AUTO 08014KT 10SM CLR 03/M08 A3016 RMK AO2 SLP215 T00281083 51011

时间: 09:59 (15:59 UTC)

预报

该预报发布于4小时和39分钟前的11:20 UTC
预报有效从19日的 12点(UTC)到 20日的 12点(UTC)
风速6节,风向多变
能見度: 10公里
天空无云
从 19日的 1800点(UTC)
风速9节,风向东转东北
能見度: 10公里
散云层高于13000英尺

TAF: KBYI 191120Z 1912/2012 VRB06KT P6SM SKC FM191800 07009KT P6SM SCT130

超过4000个机场的气象观测和天气预报(METAR&TAF报告)。

可查询的气象台以黄色和红色小点在地图上表示。

将鼠标移到小点上方,可查看气象台名称。

然后点击查看天气观测和预报。

如需切换地图:点击带黑十字的绿色按钮放大地图;点击带横线的绿色按钮缩小地图;或者点击绿色箭头查看邻近地区的地图。


METAR-TAF: